Time;durP1;ratioP1;P1;durP2;ratioP2;P2;SDS_P1;SDS_P2;PMS_P1;PMS_P2;Temp;Humidity;BMP_temperature;BMP_pressure;BME280_temperature;BME280_humidity;BME280_pressure;Samples;Min_cycle;Max_cycle;Signal;HPM_P1;HPM_P2
2020/11/25 00:02:42;;;;;;;3.07;2.77;;;;;;;19.58;52.07;100902.17;;;;-57
2020/11/25 00:05:42;;;;;;;3.09;2.79;;;;;;;19.55;52.09;100905.32;;;;-57
2020/11/25 00:08:42;;;;;;;3.09;2.79;;;;;;;19.54;52.04;100900.73;;;;-57
2020/11/25 00:11:42;;;;;;;2.99;2.75;;;;;;;19.53;52.13;100902.85;;;;-57
2020/11/25 00:14:42;;;;;;;3.25;2.95;;;;;;;19.52;52.07;100903.80;;;;-58
2020/11/25 00:17:42;;;;;;;2.93;2.68;;;;;;;19.49;52.00;100900.93;;;;-57
2020/11/25 00:20:42;;;;;;;3.25;2.83;;;;;;;19.47;52.15;100899.44;;;;-58
2020/11/25 00:23:42;;;;;;;3.21;2.91;;;;;;;19.46;52.15;100894.77;;;;-57
2020/11/25 00:26:41;;;;;;;3.09;2.80;;;;;;;19.45;52.12;100899.73;;;;-56
2020/11/25 00:29:41;;;;;;;2.90;2.62;;;;;;;19.42;52.14;100897.76;;;;-57
2020/11/25 00:32:41;;;;;;;3.23;2.93;;;;;;;19.41;52.08;100897.08;;;;-57
2020/11/25 00:35:41;;;;;;;2.91;2.71;;;;;;;19.39;52.15;100893.88;;;;-58
2020/11/25 00:38:41;;;;;;;3.04;2.80;;;;;;;19.38;52.12;100894.98;;;;-57
2020/11/25 00:41:41;;;;;;;3.11;2.80;;;;;;;19.37;52.06;100892.39;;;;-54
2020/11/25 00:44:41;;;;;;;3.63;2.88;;;;;;;19.36;52.09;100894.72;;;;-53
2020/11/25 00:47:41;;;;;;;3.09;2.86;;;;;;;19.34;52.15;100888.03;;;;-54
2020/11/25 00:50:41;;;;;;;3.05;2.75;;;;;;;19.33;52.02;100886.31;;;;-54
2020/11/25 00:53:41;;;;;;;3.18;2.77;;;;;;;19.31;51.99;100881.82;;;;-54
2020/11/25 00:56:41;;;;;;;3.36;3.06;;;;;;;19.29;52.05;100886.83;;;;-54
2020/11/25 00:59:41;;;;;;;3.21;2.91;;;;;;;19.28;52.09;100881.36;;;;-54
2020/11/25 01:02:41;;;;;;;3.01;2.74;;;;;;;19.27;52.08;100881.03;;;;-58
2020/11/25 01:05:41;;;;;;;3.03;2.73;;;;;;;19.25;52.19;100879.30;;;;-57
2020/11/25 01:08:42;;;;;;;3.06;2.83;;;;;;;19.25;52.06;100884.09;;;;-58
2020/11/25 01:11:41;;;;;;;3.09;2.79;;;;;;;19.24;52.09;100886.69;;;;-57
2020/11/25 01:14:41;;;;;;;4.01;2.79;;;;;;;19.22;52.06;100887.07;;;;-58
2020/11/25 01:17:41;;;;;;;2.91;2.61;;;;;;;19.21;52.11;100888.83;;;;-58
2020/11/25 01:20:42;;;;;;;2.89;2.69;;;;;;;19.20;52.11;100892.23;;;;-58
2020/11/25 01:23:42;;;;;;;3.09;2.79;;;;;;;19.18;52.09;100894.16;;;;-55
2020/11/25 01:26:41;;;;;;;3.15;2.85;;;;;;;19.16;52.10;100893.72;;;;-55
2020/11/25 01:29:41;;;;;;;3.01;2.77;;;;;;;19.16;52.08;100901.52;;;;-55
2020/11/25 01:32:42;;;;;;;3.03;2.83;;;;;;;19.14;52.12;100898.81;;;;-54
2020/11/25 01:35:41;;;;;;;3.29;2.81;;;;;;;19.13;52.14;100898.45;;;;-55
2020/11/25 01:38:46;;;;;;;3.05;2.77;;;;;;;19.11;52.13;100899.35;;;;-54
2020/11/25 01:41:41;;;;;;;2.94;2.72;;;;;;;19.11;52.14;100896.31;;;;-55
2020/11/25 01:44:42;;;;;;;3.16;2.86;;;;;;;19.09;52.13;100893.80;;;;-55
2020/11/25 01:47:41;;;;;;;2.85;2.65;;;;;;;19.09;52.08;100893.52;;;;-55
2020/11/25 01:50:41;;;;;;;3.15;2.85;;;;;;;19.07;52.08;100895.63;;;;-55
2020/11/25 01:53:41;;;;;;;2.86;2.59;;;;;;;19.06;52.15;100894.55;;;;-54
2020/11/25 01:56:41;;;;;;;3.12;2.82;;;;;;;19.05;52.04;100893.89;;;;-55
2020/11/25 01:59:41;;;;;;;3.15;2.90;;;;;;;19.04;52.21;100892.32;;;;-54
2020/11/25 02:02:42;;;;;;;3.28;2.98;;;;;;;19.03;52.18;100894.16;;;;-55
2020/11/25 02:05:42;;;;;;;3.11;2.81;;;;;;;19.01;52.17;100889.25;;;;-58
2020/11/25 02:08:41;;;;;;;3.21;2.92;;;;;;;19.00;52.10;100885.27;;;;-58
2020/11/25 02:11:41;;;;;;;3.05;2.81;;;;;;;18.98;52.18;100886.95;;;;-58
2020/11/25 02:14:41;;;;;;;2.98;2.71;;;;;;;18.97;52.18;100884.75;;;;-58
2020/11/25 02:17:41;;;;;;;2.95;2.72;;;;;;;18.96;52.17;100882.28;;;;-58
2020/11/25 02:20:41;;;;;;;3.20;2.90;;;;;;;18.95;52.23;100881.55;;;;-58
2020/11/25 02:23:41;;;;;;;2.95;2.72;;;;;;;18.95;52.16;100878.88;;;;-58
2020/11/25 02:26:41;;;;;;;3.03;2.77;;;;;;;18.94;52.13;100879.81;;;;-58
2020/11/25 02:29:41;;;;;;;2.98;2.78;;;;;;;18.92;52.11;100876.70;;;;-58
2020/11/25 02:32:41;;;;;;;3.14;2.85;;;;;;;18.92;52.12;100874.43;;;;-58
2020/11/25 02:35:41;;;;;;;3.01;2.79;;;;;;;18.91;52.16;100871.75;;;;-58
2020/11/25 02:38:41;;;;;;;2.85;2.65;;;;;;;18.90;52.09;100866.19;;;;-58
2020/11/25 02:41:41;;;;;;;3.07;2.77;;;;;;;18.88;52.13;100863.84;;;;-58
2020/11/25 02:44:41;;;;;;;3.09;2.79;;;;;;;18.88;52.14;100864.54;;;;-58
2020/11/25 02:47:41;;;;;;;3.10;2.80;;;;;;;18.87;52.18;100863.64;;;;-58
2020/11/25 02:50:41;;;;;;;2.99;2.63;;;;;;;18.86;52.19;100863.29;;;;-54
2020/11/25 02:53:41;;;;;;;2.96;2.76;;;;;;;18.85;52.19;100864.59;;;;-54
2020/11/25 02:56:42;;;;;;;2.79;2.59;;;;;;;18.84;52.06;100861.95;;;;-55
2020/11/25 02:59:41;;;;;;;3.09;2.83;;;;;;;18.83;52.18;100863.91;;;;-54
2020/11/25 03:02:42;;;;;;;3.03;2.73;;;;;;;18.83;52.19;100868.13;;;;-54
2020/11/25 03:05:41;;;;;;;2.83;2.61;;;;;;;18.81;52.17;100858.43;;;;-54
2020/11/25 03:08:41;;;;;;;2.79;2.59;;;;;;;18.81;52.17;100865.82;;;;-54
2020/11/25 03:11:41;;;;;;;3.27;2.59;;;;;;;18.81;52.24;100862.17;;;;-54
2020/11/25 03:14:41;;;;;;;2.86;2.66;;;;;;;18.80;52.25;100864.41;;;;-54
2020/11/25 03:17:43;;;;;;;2.99;2.75;;;;;;;18.77;52.21;100859.64;;;;-53
2020/11/25 03:20:41;;;;;;;2.74;2.54;;;;;;;18.77;52.18;100858.42;;;;-54
2020/11/25 03:23:41;;;;;;;3.10;2.81;;;;;;;18.76;52.27;100856.77;;;;-54
2020/11/25 03:26:41;;;;;;;3.23;2.93;;;;;;;18.76;52.13;100850.43;;;;-54
2020/11/25 03:29:42;;;;;;;3.15;2.85;;;;;;;18.75;52.26;100851.73;;;;-54
2020/11/25 03:32:41;;;;;;;3.43;3.13;;;;;;;18.74;52.15;100851.21;;;;-54
2020/11/25 03:35:41;;;;;;;3.03;2.81;;;;;;;18.73;52.20;100856.16;;;;-55
2020/11/25 03:38:42;;;;;;;3.06;2.80;;;;;;;18.71;52.16;100856.12;;;;-54
2020/11/25 03:41:41;;;;;;;3.07;2.75;;;;;;;18.71;52.22;100856.53;;;;-54
2020/11/25 03:44:41;;;;;;;2.90;2.70;;;;;;;18.71;52.21;100855.40;;;;-54
2020/11/25 03:47:41;;;;;;;3.00;2.78;;;;;;;18.70;52.33;100852.23;;;;-54
2020/11/25 03:50:41;;;;;;;3.12;2.82;;;;;;;18.68;52.20;100854.14;;;;-54
2020/11/25 03:53:41;;;;;;;3.00;2.80;;;;;;;18.67;52.26;100855.50;;;;-55
2020/11/25 03:56:42;;;;;;;3.06;2.77;;;;;;;18.67;52.27;100861.83;;;;-53
2020/11/25 03:59:41;;;;;;;3.21;2.91;;;;;;;18.66;52.31;100862.48;;;;-55
2020/11/25 04:02:42;;;;;;;3.08;2.78;;;;;;;18.65;52.20;100861.95;;;;-54
2020/11/25 04:05:41;;;;;;;3.57;2.94;;;;;;;18.65;52.18;100858.47;;;;-55
2020/11/25 04:08:41;;;;;;;3.13;2.83;;;;;;;18.64;52.36;100861.88;;;;-54
2020/11/25 04:11:41;;;;;;;3.18;2.88;;;;;;;18.63;52.31;100858.19;;;;-58
2020/11/25 04:14:41;;;;;;;3.27;2.96;;;;;;;18.62;52.35;100860.78;;;;-58
2020/11/25 04:17:41;;;;;;;3.21;2.91;;;;;;;18.63;52.31;100863.63;;;;-58
2020/11/25 04:20:41;;;;;;;3.26;2.96;;;;;;;18.61;52.36;100865.05;;;;-58
2020/11/25 04:23:41;;;;;;;3.21;2.91;;;;;;;18.59;52.31;100862.21;;;;-58
2020/11/25 04:26:41;;;;;;;3.21;2.91;;;;;;;18.59;52.33;100866.81;;;;-57
2020/11/25 04:29:41;;;;;;;2.91;2.71;;;;;;;18.59;52.26;100862.99;;;;-58
2020/11/25 04:32:42;;;;;;;3.19;2.89;;;;;;;18.57;52.35;100861.50;;;;-57
2020/11/25 04:35:41;;;;;;;3.15;2.85;;;;;;;18.57;52.35;100859.39;;;;-57
2020/11/25 04:38:41;;;;;;;3.35;3.07;;;;;;;18.56;52.29;100857.52;;;;-57
2020/11/25 04:41:41;;;;;;;3.27;2.97;;;;;;;18.55;52.44;100852.64;;;;-57
2020/11/25 04:44:41;;;;;;;3.05;2.75;;;;;;;18.55;52.50;100854.41;;;;-56
2020/11/25 04:47:41;;;;;;;3.85;2.96;;;;;;;18.54;52.39;100850.18;;;;-58
2020/11/25 04:50:41;;;;;;;3.11;2.83;;;;;;;18.53;52.44;100853.72;;;;-57
2020/11/25 04:53:41;;;;;;;3.22;2.92;;;;;;;18.53;52.44;100854.16;;;;-58
2020/11/25 04:56:41;;;;;;;3.30;3.00;;;;;;;18.53;52.45;100854.45;;;;-58
2020/11/25 04:59:41;;;;;;;3.05;2.79;;;;;;;18.52;52.31;100855.75;;;;-58
2020/11/25 05:02:41;;;;;;;3.37;3.07;;;;;;;18.51;52.44;100856.20;;;;-58
2020/11/25 05:05:41;;;;;;;3.41;3.01;;;;;;;18.50;52.42;100853.92;;;;-58
2020/11/25 05:08:41;;;;;;;3.33;3.03;;;;;;;18.49;52.39;100852.55;;;;-58
2020/11/25 05:11:41;;;;;;;2.97;2.76;;;;;;;18.50;52.47;100851.17;;;;-58
2020/11/25 05:14:41;;;;;;;2.95;2.75;;;;;;;18.48;52.41;100845.70;;;;-54
2020/11/25 05:17:41;;;;;;;3.20;2.90;;;;;;;18.48;52.37;100846.51;;;;-55
2020/11/25 05:20:41;;;;;;;3.30;3.00;;;;;;;18.47;52.54;100845.20;;;;-55
2020/11/25 05:23:41;;;;;;;3.15;2.85;;;;;;;18.47;52.49;100844.39;;;;-54
2020/11/25 05:26:41;;;;;;;3.41;3.11;;;;;;;18.46;52.49;100846.39;;;;-55
2020/11/25 05:29:41;;;;;;;3.15;2.85;;;;;;;18.46;52.51;100847.77;;;;-57
2020/11/25 05:32:41;;;;;;;3.36;3.06;;;;;;;18.45;52.49;100846.92;;;;-57
2020/11/25 05:35:41;;;;;;;3.35;3.05;;;;;;;18.44;52.46;100849.20;;;;-53
2020/11/25 05:38:41;;;;;;;3.43;3.13;;;;;;;18.44;52.52;100847.90;;;;-54
2020/11/25 05:41:41;;;;;;;4.21;3.01;;;;;;;18.43;52.55;100845.30;;;;-53
2020/11/25 05:44:41;;;;;;;3.12;2.82;;;;;;;18.43;52.50;100841.70;;;;-53
2020/11/25 05:47:42;;;;;;;3.26;2.96;;;;;;;18.43;52.54;100848.52;;;;-54
2020/11/25 05:50:41;;;;;;;3.35;3.05;;;;;;;18.42;52.54;100849.24;;;;-54
2020/11/25 05:53:41;;;;;;;3.19;2.89;;;;;;;18.41;52.49;100846.70;;;;-54
2020/11/25 05:56:41;;;;;;;3.20;2.91;;;;;;;18.41;52.54;100844.91;;;;-54
2020/11/25 05:59:41;;;;;;;3.20;2.90;;;;;;;18.40;52.50;100844.58;;;;-55
2020/11/25 06:02:41;;;;;;;3.25;2.95;;;;;;;18.40;52.46;100847.91;;;;-55
2020/11/25 06:05:41;;;;;;;3.28;2.98;;;;;;;18.39;52.54;100844.91;;;;-55
2020/11/25 06:08:41;;;;;;;3.18;2.88;;;;;;;18.39;52.48;100847.42;;;;-55
2020/11/25 06:11:41;;;;;;;3.17;2.90;;;;;;;18.38;52.51;100844.71;;;;-55
2020/11/25 06:14:41;;;;;;;3.33;3.03;;;;;;;18.37;52.48;100843.33;;;;-55
2020/11/25 06:17:41;;;;;;;3.30;3.00;;;;;;;18.38;52.34;100847.15;;;;-54
2020/11/25 06:20:41;;;;;;;3.34;3.04;;;;;;;18.40;52.48;100844.26;;;;-55
2020/11/25 06:23:41;;;;;;;3.53;2.87;;;;;;;18.41;52.44;100839.02;;;;-55
2020/11/25 06:26:41;;;;;;;3.26;3.01;;;;;;;18.43;52.40;100837.64;;;;-55
2020/11/25 06:29:41;;;;;;;3.27;2.97;;;;;;;18.45;52.37;100835.84;;;;-55
2020/11/25 06:32:41;;;;;;;3.26;2.96;;;;;;;18.47;52.49;100833.20;;;;-54
2020/11/25 06:35:41;;;;;;;3.03;2.75;;;;;;;18.50;52.54;100838.34;;;;-55
2020/11/25 06:38:41;;;;;;;3.05;2.79;;;;;;;18.52;52.69;100839.27;;;;-54
2020/11/25 06:41:41;;;;;;;3.12;2.82;;;;;;;18.54;52.73;100846.45;;;;-55
2020/11/25 06:44:41;;;;;;;2.90;2.70;;;;;;;18.57;52.78;100851.19;;;;-55
2020/11/25 06:47:41;;;;;;;3.09;2.83;;;;;;;18.60;52.77;100859.21;;;;-55
2020/11/25 06:50:41;;;;;;;2.74;2.54;;;;;;;18.63;52.74;100862.33;;;;-54
2020/11/25 06:53:41;;;;;;;2.65;2.45;;;;;;;18.66;52.68;100870.92;;;;-53
2020/11/25 06:56:41;;;;;;;2.83;2.62;;;;;;;18.68;52.73;100866.41;;;;-54
2020/11/25 06:59:41;;;;;;;2.55;2.35;;;;;;;18.70;52.75;100874.97;;;;-54
2020/11/25 07:02:41;;;;;;;2.64;2.44;;;;;;;18.73;52.74;100871.10;;;;-55
2020/11/25 07:05:41;;;;;;;2.80;2.60;;;;;;;18.75;52.73;100874.78;;;;-54
2020/11/25 07:08:41;;;;;;;2.93;2.58;;;;;;;18.76;52.73;100878.80;;;;-54
2020/11/25 07:11:41;;;;;;;2.69;2.49;;;;;;;18.79;52.70;100878.94;;;;-55
2020/11/25 07:14:41;;;;;;;2.74;2.52;;;;;;;18.80;52.63;100881.55;;;;-54
2020/11/25 07:17:41;;;;;;;2.56;2.36;;;;;;;18.81;52.74;100891.89;;;;-54
2020/11/25 07:20:41;;;;;;;2.65;2.44;;;;;;;18.82;52.68;100895.14;;;;-54
2020/11/25 07:23:41;;;;;;;2.87;2.65;;;;;;;18.83;52.73;100899.55;;;;-54
2020/11/25 07:26:41;;;;;;;2.67;2.47;;;;;;;18.83;52.71;100903.94;;;;-54
2020/11/25 07:29:41;;;;;;;2.69;2.49;;;;;;;18.84;52.64;100915.39;;;;-53
2020/11/25 07:32:41;;;;;;;2.73;2.53;;;;;;;18.84;52.69;100913.77;;;;-54
2020/11/25 07:35:41;;;;;;;2.62;2.42;;;;;;;18.84;52.74;100921.64;;;;-54
2020/11/25 07:38:41;;;;;;;2.61;2.41;;;;;;;18.84;52.73;100923.86;;;;-54
2020/11/25 07:41:41;;;;;;;2.40;2.20;;;;;;;18.84;52.75;100927.73;;;;-53
2020/11/25 07:44:41;;;;;;;2.77;2.57;;;;;;;18.85;52.56;100923.70;;;;-58
2020/11/25 07:47:41;;;;;;;2.60;2.40;;;;;;;18.85;52.73;100921.19;;;;-58
2020/11/25 07:50:41;;;;;;;2.69;2.49;;;;;;;18.84;52.73;100919.20;;;;-58
2020/11/25 07:53:41;;;;;;;2.60;2.40;;;;;;;18.84;52.65;100917.09;;;;-58
2020/11/25 07:56:41;;;;;;;2.80;2.60;;;;;;;18.85;52.74;100923.14;;;;-58
2020/11/25 07:59:41;;;;;;;2.77;2.57;;;;;;;18.84;52.59;100930.00;;;;-58
2020/11/25 08:02:41;;;;;;;2.73;2.53;;;;;;;18.84;52.59;100934.80;;;;-54
2020/11/25 08:05:41;;;;;;;2.69;2.49;;;;;;;18.84;52.57;100936.91;;;;-53
2020/11/25 08:08:41;;;;;;;2.62;2.42;;;;;;;18.84;52.53;100938.53;;;;-53
2020/11/25 08:11:42;;;;;;;2.68;2.48;;;;;;;18.83;52.61;100936.42;;;;-55
2020/11/25 08:14:41;;;;;;;2.77;2.47;;;;;;;18.84;52.48;100933.98;;;;-55
2020/11/25 08:17:41;;;;;;;2.75;2.55;;;;;;;18.83;52.54;100933.34;;;;-55
2020/11/25 08:20:42;;;;;;;2.82;2.61;;;;;;;18.83;52.58;100934.39;;;;-55
2020/11/25 08:23:41;;;;;;;2.87;2.53;;;;;;;18.82;52.51;100931.68;;;;-55
2020/11/25 08:26:41;;;;;;;2.90;2.63;;;;;;;18.82;52.42;100929.84;;;;-55
2020/11/25 08:29:41;;;;;;;3.14;2.72;;;;;;;18.82;52.30;100925.02;;;;-58
2020/11/25 08:32:41;;;;;;;2.63;2.43;;;;;;;18.82;52.30;100936.22;;;;-58
2020/11/25 08:35:41;;;;;;;2.97;2.73;;;;;;;18.81;52.21;100936.06;;;;-58
2020/11/25 08:38:41;;;;;;;3.07;2.51;;;;;;;18.81;52.24;100939.63;;;;-58
2020/11/25 08:41:41;;;;;;;2.92;2.67;;;;;;;18.80;52.25;100941.80;;;;-57
2020/11/25 08:44:41;;;;;;;2.81;2.61;;;;;;;18.79;52.24;100944.80;;;;-58
2020/11/25 08:47:41;;;;;;;5.67;2.76;;;;;;;18.81;52.37;100945.80;;;;-55
2020/11/25 08:50:41;;;;;;;3.21;2.41;;;;;;;18.81;52.66;100950.59;;;;-55
2020/11/25 08:53:41;;;;;;;3.43;2.61;;;;;;;18.83;52.92;100951.77;;;;-54
2020/11/25 08:56:42;;;;;;;3.13;2.51;;;;;;;18.86;52.89;100953.19;;;;-55
2020/11/25 08:59:41;;;;;;;3.84;2.52;;;;;;;18.90;52.94;100949.27;;;;-56
2020/11/25 09:02:41;;;;;;;2.64;2.44;;;;;;;18.94;53.15;100949.91;;;;-50
2020/11/25 09:05:41;;;;;;;3.71;2.47;;;;;;;18.97;53.42;100950.14;;;;-62
2020/11/25 09:08:41;;;;;;;3.72;2.43;;;;;;;19.03;53.40;100949.83;;;;-53
2020/11/25 09:11:41;;;;;;;3.34;2.31;;;;;;;19.06;53.38;100952.38;;;;-51
2020/11/25 09:14:41;;;;;;;3.47;2.23;;;;;;;19.11;53.42;100949.77;;;;-53
2020/11/25 09:17:41;;;;;;;3.31;2.35;;;;;;;19.13;53.42;100953.05;;;;-52
2020/11/25 09:20:41;;;;;;;2.99;2.33;;;;;;;19.17;53.44;100954.91;;;;-53
2020/11/25 09:23:41;;;;;;;2.47;2.27;;;;;;;19.21;53.33;100962.60;;;;-52
2020/11/25 09:26:41;;;;;;;4.29;2.26;;;;;;;19.24;53.34;100962.59;;;;-51
2020/11/25 09:29:41;;;;;;;2.42;2.22;;;;;;;19.27;53.41;100957.25;;;;-52
2020/11/25 09:32:41;;;;;;;2.60;2.40;;;;;;;19.32;53.41;100959.52;;;;-55
2020/11/25 09:35:41;;;;;;;2.57;2.37;;;;;;;19.35;53.25;100963.72;;;;-53
2020/11/25 09:38:41;;;;;;;2.71;2.30;;;;;;;19.38;53.28;100957.11;;;;-53
2020/11/25 09:41:41;;;;;;;2.33;2.13;;;;;;;19.42;53.36;100960.02;;;;-54
2020/11/25 09:44:41;;;;;;;2.51;2.31;;;;;;;19.45;53.34;100958.42;;;;-54
2020/11/25 09:47:41;;;;;;;2.46;2.26;;;;;;;19.49;53.16;100952.22;;;;-55
2020/11/25 09:50:41;;;;;;;3.13;2.20;;;;;;;19.52;53.17;100952.82;;;;-55
2020/11/25 09:53:41;;;;;;;7.68;2.33;;;;;;;19.54;52.94;100951.47;;;;-53
2020/11/25 09:56:41;;;;;;;3.67;2.40;;;;;;;19.55;52.83;100953.37;;;;-51
2020/11/25 09:59:41;;;;;;;4.99;2.15;;;;;;;19.57;52.84;100947.30;;;;-53
2020/11/25 10:02:41;;;;;;;2.47;2.15;;;;;;;19.57;52.72;100948.59;;;;-51
2020/11/25 10:05:41;;;;;;;7.27;2.26;;;;;;;19.58;52.67;100944.86;;;;-52
2020/11/25 10:08:41;;;;;;;2.40;2.20;;;;;;;19.58;52.63;100939.16;;;;-51
2020/11/25 10:11:41;;;;;;;2.60;2.29;;;;;;;19.59;52.68;100937.95;;;;-51
2020/11/25 10:14:41;;;;;;;6.53;2.36;;;;;;;19.61;52.69;100934.56;;;;-51
2020/11/25 10:17:41;;;;;;;3.69;2.70;;;;;;;19.61;52.61;100930.61;;;;-50
2020/11/25 10:20:41;;;;;;;3.84;3.03;;;;;;;19.63;52.49;100931.36;;;;-55
2020/11/25 10:23:41;;;;;;;4.55;3.01;;;;;;;19.65;52.30;100924.61;;;;-51
2020/11/25 10:26:41;;;;;;;6.47;3.41;;;;;;;19.67;52.08;100922.96;;;;-52
2020/11/25 10:29:41;;;;;;;4.42;2.81;;;;;;;19.69;52.23;100921.58;;;;-52
2020/11/25 10:32:41;;;;;;;7.01;2.71;;;;;;;19.71;52.17;100921.87;;;;-55
2020/11/25 10:35:41;;;;;;;5.31;3.24;;;;;;;19.73;51.58;100919.30;;;;-58
2020/11/25 10:38:41;;;;;;;4.61;2.72;;;;;;;19.75;52.07;100917.54;;;;-55
2020/11/25 10:41:41;;;;;;;3.42;2.57;;;;;;;19.77;52.17;100919.44;;;;-57
2020/11/25 10:44:41;;;;;;;3.63;2.76;;;;;;;19.80;52.35;100918.03;;;;-58
2020/11/25 10:47:41;;;;;;;6.31;2.57;;;;;;;19.81;52.38;100914.45;;;;-58
2020/11/25 10:50:42;;;;;;;3.11;2.55;;;;;;;19.83;52.49;100912.52;;;;-54
2020/11/25 10:53:41;;;;;;;5.09;2.50;;;;;;;19.84;52.47;100909.91;;;;-53
2020/11/25 10:56:41;;;;;;;2.71;2.41;;;;;;;19.86;52.48;100915.17;;;;-55
2020/11/25 10:59:41;;;;;;;3.30;2.47;;;;;;;19.87;52.49;100908.91;;;;-51
2020/11/25 11:02:41;;;;;;;3.60;2.71;;;;;;;19.88;52.47;100910.56;;;;-54
2020/11/25 11:05:41;;;;;;;4.58;2.50;;;;;;;19.88;52.54;100906.17;;;;-49
2020/11/25 11:08:41;;;;;;;2.75;2.40;;;;;;;19.89;52.59;100903.81;;;;-50
2020/11/25 11:11:41;;;;;;;3.96;2.35;;;;;;;19.88;52.57;100903.97;;;;-55
2020/11/25 11:14:41;;;;;;;4.43;2.55;;;;;;;19.89;52.45;100902.91;;;;-58
2020/11/25 11:17:41;;;;;;;3.53;2.39;;;;;;;19.89;52.54;100902.02;;;;-61
2020/11/25 11:20:41;;;;;;;3.61;2.58;;;;;;;19.90;52.49;100903.64;;;;-56
2020/11/25 11:23:41;;;;;;;3.10;2.41;;;;;;;19.89;52.45;100894.21;;;;-57
2020/11/25 11:26:41;;;;;;;3.56;2.37;;;;;;;19.89;52.43;100894.37;;;;-56
2020/11/25 11:29:41;;;;;;;5.03;2.51;;;;;;;19.88;52.21;100887.63;;;;-61
2020/11/25 11:32:41;;;;;;;5.13;2.76;;;;;;;19.86;51.76;100889.06;;;;-61
2020/11/25 11:35:41;;;;;;;3.90;2.83;;;;;;;19.85;51.49;100887.01;;;;-61
2020/11/25 11:38:41;;;;;;;4.13;2.92;;;;;;;19.83;51.57;100889.09;;;;-58
2020/11/25 11:41:41;;;;;;;3.53;2.63;;;;;;;19.82;51.71;100892.35;;;;-58
2020/11/25 11:44:41;;;;;;;2.67;2.47;;;;;;;19.81;51.76;100888.42;;;;-58
2020/11/25 11:47:41;;;;;;;3.05;2.53;;;;;;;19.79;51.72;100884.33;;;;-58
2020/11/25 11:50:41;;;;;;;4.57;2.58;;;;;;;19.79;51.69;100878.55;;;;-59
2020/11/25 11:53:44;;;;;;;3.05;2.39;;;;;;;19.78;51.73;100876.28;;;;-58
2020/11/25 11:56:41;;;;;;;3.14;2.65;;;;;;;19.76;51.60;100874.55;;;;-54
2020/11/25 11:59:41;;;;;;;2.97;2.50;;;;;;;19.76;51.69;100876.25;;;;-53
2020/11/25 12:02:41;;;;;;;3.08;2.55;;;;;;;19.75;51.67;100875.66;;;;-54
2020/11/25 12:05:41;;;;;;;2.66;2.35;;;;;;;19.75;51.62;100871.84;;;;-54
2020/11/25 12:08:41;;;;;;;2.59;2.39;;;;;;;19.74;51.66;100870.30;;;;-53
2020/11/25 12:11:41;;;;;;;2.72;2.41;;;;;;;19.73;51.47;100859.20;;;;-54
2020/11/25 12:14:41;;;;;;;3.33;2.42;;;;;;;19.73;51.51;100859.45;;;;-54
2020/11/25 12:17:41;;;;;;;2.50;2.30;;;;;;;19.73;51.55;100856.03;;;;-53
2020/11/25 12:20:41;;;;;;;4.23;2.43;;;;;;;19.73;51.56;100858.07;;;;-53
2020/11/25 12:23:41;;;;;;;2.75;2.28;;;;;;;19.73;51.52;100856.52;;;;-53
2020/11/25 12:26:41;;;;;;;2.83;2.59;;;;;;;19.73;51.57;100854.41;;;;-54
2020/11/25 12:29:41;;;;;;;2.50;2.30;;;;;;;19.72;51.50;100853.03;;;;-57
2020/11/25 12:32:41;;;;;;;2.59;2.39;;;;;;;19.72;51.49;100851.41;;;;-57
2020/11/25 12:35:43;;;;;;;2.47;2.27;;;;;;;19.72;51.52;100851.24;;;;-57
2020/11/25 12:38:41;;;;;;;2.69;2.49;;;;;;;19.73;51.49;100849.86;;;;-57
2020/11/25 12:41:41;;;;;;;2.61;2.41;;;;;;;19.73;51.52;100849.37;;;;-59
2020/11/25 12:44:41;;;;;;;2.70;2.43;;;;;;;19.72;51.46;100849.20;;;;-59
2020/11/25 12:47:41;;;;;;;2.61;2.41;;;;;;;19.72;51.42;100844.49;;;;-57
2020/11/25 12:50:41;;;;;;;2.60;2.40;;;;;;;19.72;51.44;100842.14;;;;-57
2020/11/25 12:53:41;;;;;;;2.63;2.36;;;;;;;19.73;51.52;100844.16;;;;-53
2020/11/25 12:56:41;;;;;;;2.41;2.21;;;;;;;19.73;51.51;100844.49;;;;-54
2020/11/25 12:59:41;;;;;;;3.60;2.49;;;;;;;19.73;51.44;100848.96;;;;-53
2020/11/25 13:02:41;;;;;;;2.60;2.40;;;;;;;19.72;51.37;100845.71;;;;-53
2020/11/25 13:05:41;;;;;;;3.30;2.68;;;;;;;19.72;51.29;100842.55;;;;-53
2020/11/25 13:08:41;;;;;;;2.97;2.55;;;;;;;19.73;51.26;100841.40;;;;-54
2020/11/25 13:11:41;;;;;;;2.59;2.39;;;;;;;19.72;51.33;100837.58;;;;-54
2020/11/25 13:14:41;;;;;;;2.69;2.49;;;;;;;19.73;51.41;100837.91;;;;-53
2020/11/25 13:17:41;;;;;;;3.07;2.40;;;;;;;19.72;51.40;100830.99;;;;-61
2020/11/25 13:20:41;;;;;;;2.87;2.52;;;;;;;19.71;51.61;100827.22;;;;-58
2020/11/25 13:23:41;;;;;;;3.80;2.36;;;;;;;19.74;51.56;100826.79;;;;-60
2020/11/25 13:26:41;;;;;;;2.80;2.31;;;;;;;19.76;51.53;100826.66;;;;-52
2020/11/25 13:29:42;;;;;;;2.91;2.27;;;;;;;19.77;51.86;100824.20;;;;-52
2020/11/25 13:32:41;;;;;;;2.93;2.30;;;;;;;19.79;51.75;100820.00;;;;-55
2020/11/25 13:35:41;;;;;;;2.92;2.41;;;;;;;19.80;52.04;100816.69;;;;-57
2020/11/25 13:38:41;;;;;;;2.46;2.25;;;;;;;19.82;52.10;100814.77;;;;-53
2020/11/25 13:41:41;;;;;;;2.47;2.27;;;;;;;19.83;51.95;100819.55;;;;-55
2020/11/25 13:44:41;;;;;;;3.61;2.37;;;;;;;19.84;52.08;100820.06;;;;-57
2020/11/25 13:47:41;;;;;;;2.39;2.19;;;;;;;19.86;52.08;100817.73;;;;-53
2020/11/25 13:50:41;;;;;;;2.41;2.21;;;;;;;19.86;52.14;100816.67;;;;-52
2020/11/25 13:53:41;;;;;;;2.66;2.40;;;;;;;19.87;52.17;100814.88;;;;-53
2020/11/25 13:56:41;;;;;;;2.63;2.36;;;;;;;19.87;52.06;100814.88;;;;-54
2020/11/25 13:59:41;;;;;;;4.23;2.55;;;;;;;19.84;51.50;100819.42;;;;-55
2020/11/25 14:02:41;;;;;;;4.05;2.57;;;;;;;19.84;51.41;100821.13;;;;-51
2020/11/25 14:05:41;;;;;;;2.63;2.43;;;;;;;19.85;51.49;100825.67;;;;-53
2020/11/25 14:08:41;;;;;;;3.90;2.74;;;;;;;19.87;51.61;100823.02;;;;-55
2020/11/25 14:11:41;;;;;;;3.51;2.69;;;;;;;19.88;51.68;100819.78;;;;-57
2020/11/25 14:14:41;;;;;;;2.91;2.64;;;;;;;19.89;51.88;100811.00;;;;-55
2020/11/25 14:17:41;;;;;;;2.95;2.32;;;;;;;19.90;51.81;100818.84;;;;-54
2020/11/25 14:20:41;;;;;;;3.60;2.67;;;;;;;19.90;51.90;100818.75;;;;-58
2020/11/25 14:23:41;;;;;;;4.11;2.71;;;;;;;19.92;51.82;100814.76;;;;-53
2020/11/25 14:26:41;;;;;;;4.22;3.27;;;;;;;19.94;51.43;100813.64;;;;-53
2020/11/25 14:29:41;;;;;;;3.52;2.91;;;;;;;19.94;51.44;100811.94;;;;-53
2020/11/25 14:32:41;;;;;;;4.17;2.64;;;;;;;19.93;51.35;100812.27;;;;-54
2020/11/25 14:35:41;;;;;;;3.58;2.39;;;;;;;19.92;51.44;100818.83;;;;-53
2020/11/25 14:38:41;;;;;;;3.08;2.35;;;;;;;19.92;51.34;100813.78;;;;-61
2020/11/25 14:41:41;;;;;;;3.48;2.51;;;;;;;19.90;51.39;100814.69;;;;-61
2020/11/25 14:44:41;;;;;;;2.90;2.59;;;;;;;19.89;51.46;100815.23;;;;-62
2020/11/25 14:47:41;;;;;;;3.01;2.59;;;;;;;19.88;51.39;100814.96;;;;-61
2020/11/25 14:50:41;;;;;;;2.73;2.53;;;;;;;19.87;51.50;100819.03;;;;-62
2020/11/25 14:53:41;;;;;;;3.39;2.53;;;;;;;19.87;51.47;100822.04;;;;-61
2020/11/25 14:56:41;;;;;;;4.58;2.60;;;;;;;19.86;51.54;100823.40;;;;-53
2020/11/25 14:59:41;;;;;;;3.33;2.58;;;;;;;19.85;51.38;100824.87;;;;-53
2020/11/25 15:02:41;;;;;;;3.27;2.61;;;;;;;19.84;51.47;100825.66;;;;-60
2020/11/25 15:05:41;;;;;;;2.73;2.50;;;;;;;19.83;51.51;100827.36;;;;-60
2020/11/25 15:08:41;;;;;;;3.96;2.54;;;;;;;19.83;51.41;100835.58;;;;-60
2020/11/25 15:11:41;;;;;;;3.81;2.75;;;;;;;19.82;51.47;100841.90;;;;-62
2020/11/25 15:14:41;;;;;;;2.76;2.56;;;;;;;19.81;51.41;100843.36;;;;-61
2020/11/25 15:17:41;;;;;;;4.19;2.73;;;;;;;19.78;51.50;100838.05;;;;-57
2020/11/25 15:20:41;;;;;;;3.67;2.81;;;;;;;19.77;51.29;100845.43;;;;-57
2020/11/25 15:23:41;;;;;;;3.77;2.98;;;;;;;19.77;51.07;100848.20;;;;-57
2020/11/25 15:26:41;;;;;;;3.54;3.11;;;;;;;19.78;50.56;100846.03;;;;-58
2020/11/25 15:29:42;;;;;;;5.99;3.44;;;;;;;19.78;50.55;100852.70;;;;-57
2020/11/25 15:32:41;;;;;;;3.64;3.32;;;;;;;19.80;50.39;100852.23;;;;-59
2020/11/25 15:35:41;;;;;;;3.77;3.39;;;;;;;19.82;49.97;100853.13;;;;-58
2020/11/25 15:38:41;;;;;;;4.17;3.41;;;;;;;19.84;50.25;100852.61;;;;-53
2020/11/25 15:41:41;;;;;;;4.09;3.69;;;;;;;19.86;50.22;100855.47;;;;-57
2020/11/25 15:44:41;;;;;;;4.77;3.70;;;;;;;19.88;49.91;100854.20;;;;-58
2020/11/25 15:47:41;;;;;;;3.97;3.57;;;;;;;19.89;49.71;100852.48;;;;-58
2020/11/25 15:50:41;;;;;;;4.24;3.83;;;;;;;19.91;49.50;100851.77;;;;-58
2020/11/25 15:53:41;;;;;;;3.89;3.52;;;;;;;19.94;49.32;100856.67;;;;-58
2020/11/25 15:56:41;;;;;;;4.73;3.89;;;;;;;19.95;49.49;100851.33;;;;-58
2020/11/25 15:59:41;;;;;;;5.13;3.66;;;;;;;19.98;49.68;100847.84;;;;-57
2020/11/25 16:02:41;;;;;;;4.49;4.01;;;;;;;20.00;49.50;100846.25;;;;-58
2020/11/25 16:05:41;;;;;;;4.93;4.15;;;;;;;20.01;49.21;100847.41;;;;-57
2020/11/25 16:08:41;;;;;;;4.09;3.59;;;;;;;20.03;49.52;100850.36;;;;-57
2020/11/25 16:11:41;;;;;;;4.14;3.58;;;;;;;20.06;49.35;100851.59;;;;-57
2020/11/25 16:14:41;;;;;;;5.53;4.09;;;;;;;20.06;48.87;100849.73;;;;-57
2020/11/25 16:17:41;;;;;;;4.43;4.01;;;;;;;20.08;49.08;100856.83;;;;-51
2020/11/25 16:20:41;;;;;;;6.27;3.93;;;;;;;20.11;49.12;100859.80;;;;-58
2020/11/25 16:23:41;;;;;;;4.24;3.81;;;;;;;20.12;49.24;100855.08;;;;-54
2020/11/25 16:26:41;;;;;;;4.49;4.09;;;;;;;20.14;48.72;100857.63;;;;-58
2020/11/25 16:29:41;;;;;;;4.43;3.99;;;;;;;20.16;49.27;100859.84;;;;-58
2020/11/25 16:32:41;;;;;;;4.57;4.17;;;;;;;20.17;48.59;100864.02;;;;-59
2020/11/25 16:35:41;;;;;;;5.17;4.02;;;;;;;20.18;48.67;100863.77;;;;-51
2020/11/25 16:38:41;;;;;;;6.11;4.07;;;;;;;20.19;48.56;100865.64;;;;-57
2020/11/25 16:41:41;;;;;;;5.05;4.47;;;;;;;20.21;48.56;100867.96;;;;-59
2020/11/25 16:44:41;;;;;;;4.20;3.80;;;;;;;20.22;48.54;100870.40;;;;-50